B31 EFOU-EFJY

Flight info

Callsign B31
Flight time 0h 30m
Altitude 21000
Route MIKNU Y86 ELSOV
Aircraft HAWK/M-SDGIRY/C

Departure

Time 2026-05-06 14:55
Airport Oulu Airport (EFOU)

Arrival

Time 2026-05-06 15:25
Airport Jyväskylä Airport (EFJY)
Time Latitude Longitude Altitude Speed Heading
2026-05-06 14:47 64.93212 25.33705 40 ft 0 kts 283°
2026-05-06 14:48 64.93212 25.33704 40 ft 1 kts 283°
2026-05-06 14:48 64.93221 25.33668 40 ft 2 kts 335°
2026-05-06 14:48 64.93237 25.33687 40 ft 5 kts 39°
2026-05-06 14:48 64.93277 25.33763 40 ft 10 kts 40°
2026-05-06 14:49 64.93343 25.33869 42 ft 13 kts 33°
2026-05-06 14:49 64.93413 25.33983 46 ft 13 kts 31°
2026-05-06 14:49 64.93515 25.34123 40 ft 16 kts 54°
2026-05-06 14:49 64.93493 25.34341 40 ft 13 kts 121°
2026-05-06 14:50 64.93449 25.34510 40 ft 11 kts 121°
2026-05-06 14:50 64.93413 25.34653 40 ft 10 kts 121°
2026-05-06 14:50 64.93373 25.34809 40 ft 12 kts 121°
2026-05-06 14:50 64.93323 25.35005 40 ft 18 kts 121°
2026-05-06 14:51 64.93266 25.35231 40 ft 15 kts 121°
2026-05-06 14:51 64.93218 25.35420 40 ft 12 kts 121°
2026-05-06 14:51 64.93179 25.35572 40 ft 10 kts 121°
2026-05-06 14:51 64.93138 25.35733 40 ft 12 kts 121°
2026-05-06 14:52 64.93082 25.35956 40 ft 19 kts 120°
2026-05-06 14:52 64.93015 25.36211 40 ft 17 kts 121°
2026-05-06 14:52 64.92952 25.36463 40 ft 21 kts 120°
2026-05-06 14:52 64.92863 25.36814 40 ft 27 kts 120°
2026-05-06 14:53 64.92770 25.37162 40 ft 23 kts 122°
2026-05-06 14:53 64.92694 25.37474 40 ft 20 kts 121°
2026-05-06 14:53 64.92627 25.37742 40 ft 18 kts 120°
2026-05-06 14:53 64.92557 25.37936 40 ft 15 kts 161°
2026-05-06 14:54 64.92486 25.37849 39 ft 12 kts 247°
2026-05-06 14:54 64.92478 25.37670 39 ft 9 kts 277°
2026-05-06 14:54 64.92489 25.37528 40 ft 15 kts 294°
2026-05-06 14:54 64.92683 25.36764 42 ft 106 kts 301°
2026-05-06 14:55 64.93210 25.34702 466 ft 182 kts 300°
2026-05-06 14:55 64.93905 25.31805 2080 ft 214 kts 297°
2026-05-06 14:55 64.94227 25.28306 4190 ft 228 kts 262°
2026-05-06 14:55 64.93478 25.25011 6372 ft 236 kts 221°
2026-05-06 14:56 64.91941 25.23748 8517 ft 242 kts 183°
2026-05-06 14:56 64.90263 25.24364 10385 ft 257 kts 171°
2026-05-06 14:56 64.88419 25.25182 11523 ft 285 kts 172°
2026-05-06 14:56 64.86435 25.26034 13313 ft 289 kts 173°
2026-05-06 14:57 64.84415 25.26856 14874 ft 302 kts 173°
2026-05-06 14:57 64.82284 25.27687 16165 ft 319 kts 173°
2026-05-06 14:57 64.80052 25.28524 17606 ft 328 kts 172°
2026-05-06 14:57 64.77792 25.29391 19163 ft 329 kts 173°
2026-05-06 14:58 64.75547 25.30300 20769 ft 325 kts 173°
2026-05-06 14:58 64.73205 25.31212 21214 ft 359 kts 172°
2026-05-06 14:58 64.70664 25.32182 21168 ft 378 kts 172°
2026-05-06 14:58 64.68041 25.33261 21055 ft 384 kts 170°
2026-05-06 14:59 64.65406 25.34486 20994 ft 389 kts 170°
2026-05-06 14:59 64.62765 25.35737 20978 ft 393 kts 170°
2026-05-06 14:59 64.60077 25.36994 21132 ft 395 kts 171°
2026-05-06 14:59 64.57338 25.38146 21060 ft 403 kts 172°
2026-05-06 15:00 64.54560 25.39240 21141 ft 408 kts 172°
2026-05-06 15:00 64.51760 25.40285 21089 ft 415 kts 173°
2026-05-06 15:00 64.48877 25.41311 20986 ft 422 kts 173°
2026-05-06 15:00 64.45960 25.42259 21076 ft 423 kts 175°
2026-05-06 15:01 64.43018 25.42674 21157 ft 423 kts 180°
2026-05-06 15:01 64.40072 25.42546 21187 ft 425 kts 183°
2026-05-06 15:01 64.37098 25.42309 21190 ft 428 kts 183°
2026-05-06 15:01 64.34102 25.42103 21090 ft 433 kts 183°
2026-05-06 15:02 64.31075 25.41993 21075 ft 434 kts 182°
2026-05-06 15:02 64.28089 25.41951 21179 ft 433 kts 182°
2026-05-06 15:02 64.25076 25.41874 21202 ft 433 kts 183°
2026-05-06 15:02 64.22046 25.41689 21141 ft 436 kts 184°
2026-05-06 15:03 64.19018 25.41437 21136 ft 436 kts 184°
2026-05-06 15:03 64.15968 25.41145 21128 ft 437 kts 184°
2026-05-06 15:03 64.12918 25.40966 21060 ft 439 kts 183°
2026-05-06 15:03 64.09866 25.40750 21125 ft 438 kts 184°
2026-05-06 15:04 64.06819 25.40473 21040 ft 439 kts 186°
2026-05-06 15:04 64.03809 25.40055 20936 ft 440 kts 181°
2026-05-06 15:04 64.00739 25.40139 20870 ft 441 kts 182°
2026-05-06 15:04 63.97668 25.40289 20858 ft 441 kts 181°
2026-05-06 15:05 63.94605 25.40381 20873 ft 439 kts 182°
2026-05-06 15:05 63.91552 25.40389 20883 ft 438 kts 183°
2026-05-06 15:05 63.88499 25.40390 20869 ft 438 kts 183°
2026-05-06 15:05 63.85447 25.40406 20846 ft 438 kts 182°
2026-05-06 15:06 63.82399 25.40444 20874 ft 437 kts 182°
2026-05-06 15:06 63.79364 25.40508 20901 ft 436 kts 182°
2026-05-06 15:06 63.76341 25.40332 20924 ft 434 kts 185°
2026-05-06 15:06 63.73318 25.40046 20923 ft 435 kts 185°
2026-05-06 15:07 63.70325 25.39805 20889 ft 436 kts 185°
2026-05-06 15:07 63.67288 25.39594 20923 ft 434 kts 186°
2026-05-06 15:07 63.64263 25.39438 20905 ft 434 kts 186°
2026-05-06 15:07 63.61242 25.39333 20897 ft 434 kts 185°
2026-05-06 15:08 63.58212 25.39277 20833 ft 435 kts 185°
2026-05-06 15:08 63.55183 25.39277 20860 ft 434 kts 185°
2026-05-06 15:08 63.52203 25.39316 20862 ft 431 kts 186°
2026-05-06 15:08 63.49229 25.39113 20958 ft 426 kts 188°
2026-05-06 15:09 63.46256 25.38782 20891 ft 428 kts 189°
2026-05-06 15:09 63.43278 25.38479 20821 ft 429 kts 188°
2026-05-06 15:09 63.40295 25.38196 20855 ft 427 kts 188°
2026-05-06 15:09 63.37324 25.37934 20839 ft 427 kts 188°
2026-05-06 15:10 63.34348 25.37702 20755 ft 428 kts 189°
2026-05-06 15:10 63.31367 25.37519 20766 ft 427 kts 189°
2026-05-06 15:10 63.28399 25.37389 20757 ft 426 kts 189°
2026-05-06 15:10 63.25465 25.37312 20677 ft 427 kts 188°
2026-05-06 15:11 63.22508 25.37269 20847 ft 420 kts 189°
2026-05-06 15:11 63.19593 25.37157 20933 ft 417 kts 190°
2026-05-06 15:11 63.16687 25.36931 20810 ft 420 kts 190°
2026-05-06 15:11 63.13753 25.36711 20798 ft 419 kts 190°
2026-05-06 15:12 63.10845 25.36487 20827 ft 418 kts 190°
2026-05-06 15:12 63.07928 25.36281 20823 ft 419 kts 190°
2026-05-06 15:12 63.05017 25.36117 20849 ft 418 kts 189°
2026-05-06 15:12 63.02097 25.36012 20686 ft 422 kts 189°
2026-05-06 15:13 62.99141 25.35971 20428 ft 427 kts 188°
2026-05-06 15:13 62.96194 25.35954 20667 ft 417 kts 189°
2026-05-06 15:13 62.93321 25.35841 20873 ft 411 kts 191°
2026-05-06 15:13 62.90501 25.35705 20979 ft 408 kts 191°
2026-05-06 15:14 62.87689 25.35562 21254 ft 402 kts 191°
2026-05-06 15:14 62.84887 25.35414 21184 ft 405 kts 191°
2026-05-06 15:14 62.82032 25.35508 20937 ft 424 kts 180°
2026-05-06 15:14 62.79151 25.37801 20055 ft 449 kts 163°
2026-05-06 15:15 62.76410 25.41150 19374 ft 454 kts 150°
2026-05-06 15:15 62.73877 25.45154 18956 ft 445 kts 150°
2026-05-06 15:15 62.71426 25.49053 18484 ft 438 kts 149°
2026-05-06 15:15 62.68981 25.52944 17574 ft 433 kts 148°
2026-05-06 15:16 62.66565 25.56773 16647 ft 426 kts 148°
2026-05-06 15:16 62.64196 25.60512 15652 ft 412 kts 147°
2026-05-06 15:16 62.61899 25.64126 14643 ft 400 kts 147°
2026-05-06 15:16 62.59691 25.67579 13551 ft 393 kts 147°
2026-05-06 15:17 62.57475 25.71027 12321 ft 390 kts 146°
2026-05-06 15:17 62.55286 25.74443 11301 ft 383 kts 147°
2026-05-06 15:17 62.53147 25.77780 10434 ft 374 kts 146°
2026-05-06 15:17 62.51059 25.81017 9589 ft 365 kts 146°
2026-05-06 15:18 62.48992 25.84167 8614 ft 359 kts 147°
2026-05-06 15:18 62.46944 25.87227 7605 ft 356 kts 147°
2026-05-06 15:18 62.44952 25.90412 6579 ft 355 kts 144°
2026-05-06 15:18 62.42980 25.93558 5693 ft 345 kts 146°
2026-05-06 15:19 62.41169 25.96466 5072 ft 313 kts 145°
2026-05-06 15:19 62.39530 25.99113 4937 ft 273 kts 146°
2026-05-06 15:19 62.38100 26.01519 4554 ft 254 kts 144°
2026-05-06 15:19 62.36682 26.03725 4054 ft 251 kts 150°
2026-05-06 15:20 62.35204 26.05776 3566 ft 250 kts 156°
2026-05-06 15:20 62.33571 26.06412 3197 ft 233 kts 193°
2026-05-06 15:20 62.32202 26.04899 2853 ft 218 kts 222°
2026-05-06 15:20 62.31055 26.02827 2786 ft 218 kts 225°
2026-05-06 15:21 62.29862 26.00704 2888 ft 226 kts 218°
2026-05-06 15:21 62.28633 25.98589 2960 ft 230 kts 236°
2026-05-06 15:21 62.28216 25.95341 2999 ft 231 kts 279°
2026-05-06 15:21 62.28966 25.92275 3036 ft 241 kts 314°
2026-05-06 15:22 62.30178 25.89748 3044 ft 243 kts 313°
2026-05-06 15:22 62.31367 25.87151 2796 ft 236 kts 311°
2026-05-06 15:22 62.32439 25.84685 2491 ft 215 kts 310°
2026-05-06 15:22 62.33419 25.82418 2210 ft 199 kts 310°
2026-05-06 15:23 62.34352 25.80326 1929 ft 196 kts 311°
2026-05-06 15:23 62.35310 25.78223 1666 ft 197 kts 311°
2026-05-06 15:23 62.36252 25.76137 1394 ft 190 kts 310°
2026-05-06 15:23 62.37134 25.74111 1112 ft 176 kts 309°
2026-05-06 15:24 62.37912 25.72350 864 ft 148 kts 311°
2026-05-06 15:24 62.38600 25.70877 646 ft 134 kts 311°
2026-05-06 15:24 62.39219 25.69468 484 ft 127 kts 310°
2026-05-06 15:24 62.39749 25.68269 469 ft 92 kts 314°
2026-05-06 15:25 62.40126 25.67427 472 ft 66 kts 316°
2026-05-06 15:25 62.40398 25.66812 477 ft 48 kts 309°
2026-05-06 15:25 62.40523 25.66474 480 ft 18 kts 264°
2026-05-06 15:25 62.40458 25.66295 481 ft 15 kts 224°
2026-05-06 15:26 62.40377 25.66125 470 ft 18 kts 224°
2026-05-06 15:26 62.40277 25.65915 461 ft 21 kts 224°
2026-05-06 15:26 62.40193 25.65755 461 ft 9 kts 188°
2026-05-06 15:26 62.40167 25.65718 462 ft 0 kts 228°